Altair, Texas
Current Conditions -  °F | °C
As of 5:15 PM on Sunday 21 Dec 2014 (Local Time) from K66R Reporting Station
Overcast Overcast  
Wind Chill: 58°   Ceiling: 2000
Heat Index: 58°   Visibility: 10mi
Dew Point: 53°   Wind: 3mph
Humidity: 83%   Direction: 170°S
Pressure: 29.93"   Gusts: NA
Location:  29.57°N, 96.45°W
Report Text: K66R 212315Z AUTO 17003KT 10SM BKN020 BKN025 OVC031 15/12 A2993 RMK AO2 T01450116
Loading
Personal Weather Stations






























Interactive Weather Map New forecast layout! Learn more

10-Day Weather Forecast

Advertisements
Track Severe Weather on mobile